createdAt,value
2023-03-17T00:01:21.046Z,49.39
2023-03-17T00:03:50.512Z,49.72
2023-03-17T00:06:24.987Z,49.42
2023-03-17T00:08:53.301Z,49.88
2023-03-17T00:11:23.228Z,49.77
2023-03-17T00:13:51.711Z,49.97
2023-03-17T00:16:22.031Z,49.95
2023-03-17T00:18:51.152Z,50.04
2023-03-17T00:21:23.518Z,50.30
2023-03-17T00:23:52.789Z,50.38
2023-03-17T00:26:23.256Z,50.49
2023-03-17T00:28:52.108Z,50.70
2023-03-17T00:31:23.581Z,50.39
2023-03-17T00:33:53.954Z,50.67
2023-03-17T00:36:24.053Z,51.00
2023-03-17T00:38:52.772Z,51.27
2023-03-17T00:41:22.740Z,50.99
2023-03-17T00:43:51.594Z,51.20
2023-03-17T00:46:23.502Z,51.00
2023-03-17T00:48:51.817Z,50.89
2023-03-17T00:51:20.122Z,50.82
2023-03-17T00:53:48.492Z,51.12
2023-03-17T00:56:19.163Z,51.24
2023-03-17T00:58:49.490Z,51.46
2023-03-17T01:01:18.602Z,51.57
2023-03-17T01:03:47.049Z,51.01
2023-03-17T01:06:16.192Z,51.56
2023-03-17T01:08:45.338Z,51.55
2023-03-17T01:11:18.934Z,51.76
2023-03-17T01:13:48.778Z,51.49
2023-03-17T01:16:17.133Z,51.42
2023-03-17T01:18:45.677Z,51.44
2023-03-17T01:21:14.061Z,51.62
2023-03-17T01:23:43.662Z,51.35
2023-03-17T01:26:12.671Z,51.55
2023-03-17T01:28:40.939Z,51.67
2023-03-17T01:31:10.685Z,51.87
2023-03-17T01:33:39.022Z,51.99
2023-03-17T01:36:08.240Z,52.16
2023-03-17T01:38:36.577Z,51.96
2023-03-17T01:41:05.046Z,52.29
2023-03-17T01:43:33.401Z,51.87
2023-03-17T01:46:29.329Z,51.89
2023-03-17T01:49:23.888Z,52.00
2023-03-17T01:51:56.288Z,52.53
2023-03-17T01:54:28.191Z,52.29
2023-03-17T01:56:58.509Z,51.70
2023-03-17T01:59:29.664Z,51.78
2023-03-17T02:02:02.973Z,51.68
2023-03-17T02:04:32.663Z,51.79
2023-03-17T02:07:01.135Z,51.97
2023-03-17T02:09:31.027Z,51.38
2023-03-17T02:12:01.350Z,51.41
2023-03-17T02:14:30.110Z,51.39
2023-03-17T02:16:59.803Z,51.57
2023-03-17T02:19:28.576Z,51.86
2023-03-17T02:21:59.112Z,51.87
2023-03-17T02:24:29.982Z,51.79
2023-03-17T02:27:00.826Z,51.99
2023-03-17T02:29:29.189Z,51.82
2023-03-17T02:31:57.466Z,51.79
2023-03-17T02:34:25.749Z,53.75
2023-03-17T02:36:54.077Z,52.81
2023-03-17T02:39:23.928Z,52.84
2023-03-17T02:41:53.070Z,52.50
2023-03-17T02:44:21.447Z,52.56
2023-03-17T02:46:49.744Z,52.22
2023-03-17T02:49:18.604Z,52.53
2023-03-17T02:51:47.659Z,52.33
2023-03-17T02:54:15.949Z,52.18
2023-03-17T02:56:45.929Z,52.69
2023-03-17T02:59:14.214Z,52.60
2023-03-17T03:01:42.611Z,52.31
2023-03-17T03:04:11.875Z,52.21
2023-03-17T03:06:42.571Z,52.71
2023-03-17T03:09:11.780Z,52.19
2023-03-17T03:11:40.735Z,51.71
2023-03-17T03:14:10.440Z,52.05
2023-03-17T03:16:38.792Z,52.74
2023-03-17T03:19:07.748Z,52.09
2023-03-17T03:21:36.725Z,51.57
2023-03-17T03:24:05.510Z,51.89
2023-03-17T03:26:33.885Z,51.75
2023-03-17T03:29:02.255Z,51.94
2023-03-17T03:31:32.201Z,51.79
2023-03-17T03:34:00.948Z,52.02
2023-03-17T03:36:29.217Z,51.96
2023-03-17T03:38:57.999Z,51.32
2023-03-17T03:41:26.361Z,51.33
2023-03-17T03:43:54.642Z,51.40
2023-03-17T03:46:22.970Z,51.40
2023-03-17T03:48:52.626Z,51.31
2023-03-17T03:51:20.864Z,51.39
2023-03-17T03:53:49.242Z,51.36
2023-03-17T03:56:17.604Z,51.62
2023-03-17T03:58:45.880Z,51.90
2023-03-17T04:01:14.516Z,51.85
2023-03-17T04:03:42.854Z,52.04
2023-03-17T04:06:12.450Z,51.88
2023-03-17T04:08:40.717Z,52.25
2023-03-17T04:11:09.739Z,52.06
2023-03-17T04:13:38.498Z,52.13
2023-03-17T04:16:07.491Z,52.19
2023-03-17T04:18:36.431Z,51.66
2023-03-17T04:21:04.775Z,51.19
2023-03-17T04:23:34.378Z,51.69
2023-03-17T04:26:04.123Z,51.13
2023-03-17T04:28:32.576Z,50.89
2023-03-17T04:31:00.842Z,51.00
2023-03-17T04:33:29.127Z,50.94
2023-03-17T04:35:58.510Z,50.67
2023-03-17T04:38:26.922Z,51.12
2023-03-17T04:40:56.673Z,51.06
2023-03-17T04:43:25.067Z,51.41
2023-03-17T04:45:53.467Z,51.13
2023-03-17T04:48:21.781Z,51.19
2023-03-17T04:50:50.114Z,50.91
2023-03-17T04:53:18.461Z,51.62
2023-03-17T04:55:47.182Z,51.21
2023-03-17T04:58:29.966Z,51.61
2023-03-17T05:00:59.170Z,51.43
2023-03-17T05:03:28.624Z,51.51
2023-03-17T05:05:57.415Z,51.75
2023-03-17T05:08:26.355Z,51.71
2023-03-17T05:10:54.873Z,52.26
2023-03-17T05:13:25.145Z,52.48
2023-03-17T05:15:55.274Z,53.12
2023-03-17T05:18:24.926Z,52.95
2023-03-17T05:20:53.432Z,52.73
2023-03-17T05:23:22.294Z,52.75
2023-03-17T05:25:51.009Z,52.88
2023-03-17T05:28:19.401Z,52.84
2023-03-17T05:30:49.306Z,52.47
2023-03-17T05:33:18.290Z,52.32
2023-03-17T05:35:46.660Z,51.94
2023-03-17T05:38:15.937Z,51.73
2023-03-17T05:40:44.428Z,51.42
2023-03-17T05:43:12.671Z,51.26
2023-03-17T05:45:41.251Z,51.27
2023-03-17T05:48:12.290Z,50.77
2023-03-17T05:50:41.681Z,50.46
2023-03-17T05:53:10.603Z,50.48
2023-03-17T05:55:39.106Z,49.69
2023-03-17T05:58:07.813Z,49.05
2023-03-17T06:00:36.431Z,49.20
2023-03-17T06:03:05.301Z,48.68
2023-03-17T06:05:35.166Z,48.29
2023-03-17T06:08:05.083Z,47.97
2023-03-17T06:10:34.099Z,47.91
2023-03-17T06:13:03.955Z,47.73
2023-03-17T06:15:33.793Z,47.57
2023-03-17T06:18:02.513Z,47.57
2023-03-17T06:20:31.261Z,47.34
2023-03-17T06:23:04.962Z,47.29
2023-03-17T06:25:34.581Z,47.50
2023-03-17T06:28:03.930Z,47.27
2023-03-17T06:30:32.804Z,47.07
2023-03-17T06:33:01.663Z,47.57
2023-03-17T06:35:30.340Z,46.99
2023-03-17T06:38:00.904Z,47.03
2023-03-17T06:40:31.092Z,46.80
2023-03-17T06:42:59.558Z,47.06
2023-03-17T06:45:27.993Z,46.79
2023-03-17T06:47:56.247Z,46.91
2023-03-17T06:50:24.496Z,46.86
2023-03-17T06:52:52.881Z,46.98
2023-03-17T06:55:22.488Z,46.93
2023-03-17T06:57:51.444Z,47.09
2023-03-17T07:00:21.031Z,46.98
2023-03-17T07:02:49.569Z,47.11
2023-03-17T07:05:18.055Z,46.68
2023-03-17T07:07:46.697Z,46.51
2023-03-17T07:10:15.767Z,46.83
2023-03-17T07:12:45.589Z,46.52
2023-03-17T07:15:13.952Z,46.53
2023-03-17T07:17:42.647Z,46.35
2023-03-17T07:20:12.002Z,46.62
2023-03-17T07:22:40.262Z,46.06
2023-03-17T07:25:09.634Z,46.83
2023-03-17T07:27:38.062Z,46.42
2023-03-17T07:30:09.276Z,46.21
2023-03-17T07:32:37.856Z,46.13
2023-03-17T07:35:07.358Z,45.51
2023-03-17T07:37:35.659Z,46.08
2023-03-17T07:40:04.481Z,46.04
2023-03-17T07:42:34.021Z,46.09
2023-03-17T07:45:02.244Z,46.05
2023-03-17T07:47:31.825Z,46.43
2023-03-17T07:50:00.058Z,45.67
2023-03-17T07:52:28.336Z,44.97
2023-03-17T07:54:58.270Z,44.51
2023-03-17T07:57:27.188Z,44.45
2023-03-17T07:59:55.957Z,44.35
2023-03-17T08:02:24.356Z,44.66
2023-03-17T08:04:54.689Z,44.25
2023-03-17T08:07:22.926Z,43.84
2023-03-17T08:09:51.228Z,43.80
2023-03-17T08:12:20.130Z,43.62
2023-03-17T08:14:48.552Z,43.53
2023-03-17T08:17:16.993Z,43.41
2023-03-17T08:19:45.238Z,44.16
2023-03-17T08:22:14.988Z,43.28
2023-03-17T08:24:43.317Z,42.70
2023-03-17T08:27:11.756Z,42.11
2023-03-17T08:29:40.319Z,41.94
2023-03-17T08:32:09.614Z,42.54
2023-03-17T08:34:37.934Z,42.34
2023-03-17T08:37:07.005Z,41.26
2023-03-17T08:39:37.705Z,41.25
2023-03-17T08:42:06.101Z,40.84
2023-03-17T08:44:35.039Z,40.46
2023-03-17T08:47:03.963Z,40.10
2023-03-17T08:49:34.803Z,40.13
2023-03-17T08:52:03.541Z,40.43
2023-03-17T08:54:31.848Z,40.33
2023-03-17T08:57:01.833Z,40.64
2023-03-17T08:59:30.214Z,39.94
2023-03-17T09:01:58.494Z,39.30
2023-03-17T09:04:27.984Z,39.53
2023-03-17T09:07:03.282Z,39.23
2023-03-17T09:09:32.332Z,40.19
2023-03-17T09:12:02.331Z,40.05
2023-03-17T09:14:35.308Z,39.50
2023-03-17T09:17:11.610Z,38.69
2023-03-17T09:19:40.405Z,38.65
2023-03-17T09:22:08.906Z,37.86
2023-03-17T09:24:37.341Z,37.83
2023-03-17T09:27:07.154Z,38.23
2023-03-17T09:29:35.764Z,37.65
2023-03-17T09:32:04.050Z,37.48
2023-03-17T09:34:32.768Z,36.34
2023-03-17T09:37:01.014Z,37.31
2023-03-17T09:39:29.338Z,36.28
2023-03-17T09:42:03.341Z,36.22
2023-03-17T09:44:41.296Z,36.18
2023-03-17T09:47:25.333Z,35.92
2023-03-17T09:49:56.227Z,35.94
2023-03-17T09:52:28.274Z,35.58
2023-03-17T09:54:57.146Z,36.00
2023-03-17T09:57:30.485Z,35.21
2023-03-17T10:00:06.377Z,35.10
2023-03-17T10:02:37.435Z,35.09
2023-03-17T10:05:14.853Z,35.27
2023-03-17T10:07:46.677Z,35.63
2023-03-17T10:10:16.904Z,35.10
2023-03-17T10:12:49.561Z,35.51
2023-03-17T10:15:23.719Z,36.24
2023-03-17T10:17:53.464Z,36.43
2023-03-17T10:20:26.026Z,35.13
2023-03-17T10:22:58.073Z,34.53
2023-03-17T10:25:30.032Z,34.85
2023-03-17T10:28:00.898Z,35.51
2023-03-17T10:30:33.591Z,35.18
2023-03-17T10:33:04.117Z,34.06
2023-03-17T10:35:36.014Z,34.43
2023-03-17T10:38:15.882Z,34.21
2023-03-17T10:40:47.754Z,34.64
2023-03-17T10:43:21.721Z,34.92
2023-03-17T10:46:00.802Z,34.38
2023-03-17T10:48:30.200Z,33.84
2023-03-17T10:50:59.678Z,34.17
2023-03-17T10:53:31.378Z,34.07
2023-03-17T10:56:00.993Z,33.84
2023-03-17T10:58:39.213Z,33.91
2023-03-17T11:01:20.171Z,33.59
2023-03-17T11:03:49.155Z,33.48
2023-03-17T11:06:19.150Z,33.32
2023-03-17T11:08:50.140Z,33.81
2023-03-17T11:11:27.167Z,33.45
2023-03-17T11:14:02.982Z,34.05
2023-03-17T11:16:33.659Z,33.45
2023-03-17T11:19:02.723Z,33.72
2023-03-17T11:21:32.299Z,34.16
2023-03-17T11:24:08.230Z,33.22
2023-03-17T11:26:46.457Z,33.52
2023-03-17T11:29:23.803Z,32.80
2023-03-17T11:31:59.032Z,32.89
2023-03-17T11:34:34.397Z,32.62
2023-03-17T11:37:06.982Z,32.83
2023-03-17T11:39:40.380Z,32.36
2023-03-17T11:42:14.144Z,33.08
2023-03-17T11:45:15.481Z,32.87
2023-03-17T11:48:08.521Z,32.82
2023-03-17T11:50:40.809Z,31.95
2023-03-17T11:53:29.055Z,32.77
2023-03-17T11:56:01.507Z,31.94
2023-03-17T11:58:33.660Z,32.31
2023-03-17T12:01:03.048Z,32.15
2023-03-17T12:03:38.837Z,31.55
2023-03-17T12:06:13.378Z,31.44
2023-03-17T12:08:45.491Z,31.71
2023-03-17T12:11:17.105Z,33.08
2023-03-17T12:13:47.617Z,30.99
2023-03-17T12:16:17.438Z,31.04
2023-03-17T12:18:55.898Z,32.52
2023-03-17T12:21:28.324Z,31.09
2023-03-17T12:24:01.828Z,31.22
2023-03-17T12:26:37.066Z,31.30
2023-03-17T12:29:07.528Z,31.18
2023-03-17T12:31:36.238Z,30.82
2023-03-17T12:34:10.407Z,30.90
2023-03-17T12:36:39.138Z,30.83
2023-03-17T12:39:10.538Z,31.05
2023-03-17T12:42:10.058Z,31.09
2023-03-17T12:44:50.291Z,31.03
2023-03-17T12:47:32.447Z,30.33
2023-03-17T12:50:11.049Z,30.32
2023-03-17T12:52:53.011Z,30.81
2023-03-17T12:55:25.280Z,30.91
2023-03-17T12:58:02.014Z,31.29
2023-03-17T13:00:31.683Z,31.44
2023-03-17T13:03:16.168Z,31.11
2023-03-17T13:05:49.846Z,30.49
2023-03-17T13:08:28.282Z,31.37
2023-03-17T13:11:18.916Z,30.27
2023-03-17T13:13:59.206Z,30.21
2023-03-17T13:16:30.447Z,30.63
2023-03-17T13:19:14.925Z,30.55
2023-03-17T13:21:47.246Z,30.55
2023-03-17T13:24:24.216Z,30.29
2023-03-17T13:26:58.509Z,30.68
2023-03-17T13:29:50.467Z,30.10
2023-03-17T13:32:39.043Z,30.01
2023-03-17T13:35:22.113Z,29.84
2023-03-17T13:38:17.755Z,29.74
2023-03-17T13:40:52.079Z,29.40
2023-03-17T13:43:33.687Z,29.02
2023-03-17T13:46:21.529Z,29.11
2023-03-17T13:48:50.254Z,29.16
2023-03-17T13:51:23.445Z,29.11
2023-03-17T13:53:56.485Z,28.91
2023-03-17T13:56:27.838Z,29.26
2023-03-17T13:59:14.404Z,29.26
2023-03-17T14:01:44.857Z,29.64
2023-03-17T14:04:20.725Z,29.93
2023-03-17T14:06:51.238Z,29.22
2023-03-17T14:09:29.013Z,29.19
2023-03-17T14:11:59.458Z,30.22
2023-03-17T14:14:33.574Z,30.31
2023-03-17T14:17:05.146Z,29.97
2023-03-17T14:19:33.575Z,29.45
2023-03-17T14:22:23.023Z,29.49
2023-03-17T14:24:56.772Z,29.14
2023-03-17T14:27:25.851Z,30.51
2023-03-17T14:29:54.214Z,29.20
2023-03-17T14:32:25.213Z,29.15
2023-03-17T14:34:58.395Z,29.56
2023-03-17T14:37:28.031Z,29.54
2023-03-17T14:39:59.185Z,29.16
2023-03-17T14:42:28.976Z,28.94
2023-03-17T14:45:04.882Z,29.00
2023-03-17T14:47:38.469Z,29.57
2023-03-17T14:50:15.304Z,29.52
2023-03-17T14:52:43.710Z,29.82
2023-03-17T14:55:16.548Z,29.28
2023-03-17T14:57:49.963Z,29.36
2023-03-17T15:00:32.885Z,28.98
2023-03-17T15:03:03.461Z,29.46
2023-03-17T15:05:38.948Z,28.83
2023-03-17T15:08:29.339Z,29.33
2023-03-17T15:11:00.292Z,28.85
2023-03-17T15:13:29.915Z,29.06
2023-03-17T15:15:59.046Z,28.52
2023-03-17T15:18:28.720Z,28.53
2023-03-17T15:20:58.301Z,28.73
2023-03-17T15:23:30.388Z,29.08
2023-03-17T15:26:00.061Z,28.77
2023-03-17T15:28:31.166Z,29.00
2023-03-17T15:31:11.826Z,28.81
2023-03-17T15:33:41.367Z,28.55
2023-03-17T15:36:31.377Z,29.07
2023-03-17T15:39:00.561Z,28.89
2023-03-17T15:41:30.272Z,28.91
2023-03-17T15:43:58.497Z,29.39
2023-03-17T15:46:32.190Z,29.29
2023-03-17T15:49:00.797Z,28.68
2023-03-17T15:51:29.043Z,28.96
2023-03-17T15:53:57.378Z,28.54
2023-03-17T15:56:25.967Z,29.16
2023-03-17T15:58:55.610Z,29.26
2023-03-17T16:01:27.313Z,29.46
2023-03-17T16:03:56.218Z,28.94
2023-03-17T16:06:25.506Z,28.77
2023-03-17T16:08:53.897Z,28.88
2023-03-17T16:11:28.137Z,28.79
2023-03-17T16:13:59.570Z,29.42
2023-03-17T16:16:33.315Z,30.00
2023-03-17T16:19:01.745Z,30.00
2023-03-17T16:21:30.790Z,29.99
2023-03-17T16:23:59.486Z,30.18
2023-03-17T16:26:27.990Z,30.77
2023-03-17T16:28:58.229Z,31.00
2023-03-17T16:31:29.255Z,31.10
2023-03-17T16:33:57.687Z,31.27
2023-03-17T16:36:26.365Z,31.60
2023-03-17T16:38:55.171Z,31.73
2023-03-17T16:41:25.586Z,32.19
2023-03-17T16:43:55.393Z,32.00
2023-03-17T16:46:25.891Z,32.26
2023-03-17T16:48:53.933Z,32.57
2023-03-17T16:51:22.125Z,32.79
2023-03-17T16:53:50.403Z,33.42
2023-03-17T16:56:20.538Z,33.26
2023-03-17T16:58:49.435Z,33.63
2023-03-17T17:01:20.050Z,33.85
2023-03-17T17:03:49.889Z,33.99
2023-03-17T17:06:19.201Z,34.19
2023-03-17T17:08:48.502Z,34.56
2023-03-17T17:11:18.015Z,34.53
2023-03-17T17:13:48.018Z,34.47
2023-03-17T17:16:20.758Z,34.70
2023-03-17T17:18:50.325Z,35.08
2023-03-17T17:21:18.576Z,35.04
2023-03-17T17:23:47.664Z,34.92
2023-03-17T17:26:16.057Z,35.29
2023-03-17T17:28:44.305Z,35.26
2023-03-17T17:31:12.606Z,35.64
2023-03-17T17:33:41.041Z,35.76
2023-03-17T17:36:16.208Z,35.76
2023-03-17T17:38:45.447Z,35.83
2023-03-17T17:41:17.213Z,35.94
2023-03-17T17:43:49.878Z,36.22
2023-03-17T17:46:20.084Z,36.75
2023-03-17T17:48:48.455Z,36.70
2023-03-17T17:51:18.042Z,36.97
2023-03-17T17:53:46.308Z,37.38
2023-03-17T17:56:15.371Z,37.59
2023-03-17T17:58:44.102Z,38.12
2023-03-17T18:01:13.962Z,38.35
2023-03-17T18:03:43.126Z,38.47
2023-03-17T18:06:12.945Z,38.99
2023-03-17T18:08:43.548Z,39.20
2023-03-17T18:11:12.150Z,39.70
2023-03-17T18:13:41.056Z,39.96
2023-03-17T18:16:10.739Z,40.30
2023-03-17T18:18:42.286Z,40.42
2023-03-17T18:21:11.098Z,40.90
2023-03-17T18:23:39.308Z,41.20
2023-03-17T18:26:09.361Z,41.27
2023-03-17T18:28:37.578Z,41.27
2023-03-17T18:31:10.496Z,41.51
2023-03-17T18:33:39.820Z,41.46
2023-03-17T18:36:09.051Z,41.78
2023-03-17T18:38:38.373Z,41.95
2023-03-17T18:41:11.100Z,42.02
2023-03-17T18:43:40.969Z,42.07
2023-03-17T18:46:09.232Z,42.14
2023-03-17T18:48:37.479Z,42.38
2023-03-17T18:51:05.895Z,42.25
2023-03-17T18:53:35.313Z,42.26
2023-03-17T18:56:03.623Z,42.80
2023-03-17T18:58:33.277Z,43.24
2023-03-17T19:01:02.467Z,43.39
2023-03-17T19:03:32.201Z,43.85
2023-03-17T19:06:09.057Z,44.01
2023-03-17T19:08:37.403Z,45.22
2023-03-17T19:11:07.483Z,45.62
2023-03-17T19:13:37.494Z,45.25
2023-03-17T19:16:07.578Z,45.31
2023-03-17T19:18:36.686Z,46.16
2023-03-17T19:21:05.282Z,46.14
2023-03-17T19:23:34.691Z,46.34
2023-03-17T19:26:04.700Z,46.60
2023-03-17T19:28:33.054Z,46.88
2023-03-17T19:31:02.698Z,47.09
2023-03-17T19:33:32.504Z,47.50
2023-03-17T19:36:02.726Z,48.05
2023-03-17T19:38:31.207Z,48.18
2023-03-17T19:40:59.874Z,48.14
2023-03-17T19:43:39.892Z,48.42
2023-03-17T19:46:10.209Z,48.54
2023-03-17T19:48:38.393Z,48.50
2023-03-17T19:51:06.895Z,48.33
2023-03-17T19:53:35.279Z,47.79
2023-03-17T19:56:04.244Z,47.87
2023-03-17T19:58:32.476Z,48.71
2023-03-17T20:01:00.748Z,48.81
2023-03-17T20:03:30.523Z,48.49
2023-03-17T20:06:01.032Z,48.75
2023-03-17T20:08:29.339Z,49.08
2023-03-17T20:10:57.589Z,49.20
2023-03-17T20:13:26.193Z,49.55
2023-03-17T20:15:54.857Z,49.73
2023-03-17T20:18:23.683Z,49.92
2023-03-17T20:20:54.605Z,50.35
2023-03-17T20:23:23.412Z,50.48
2023-03-17T20:25:52.693Z,50.70
2023-03-17T20:28:22.429Z,50.57
2023-03-17T20:30:51.439Z,51.96
2023-03-17T20:33:19.733Z,51.76
2023-03-17T20:35:48.339Z,52.13
2023-03-17T20:38:18.583Z,52.58
2023-03-17T20:40:46.926Z,53.17
2023-03-17T20:43:15.242Z,54.43
2023-03-17T20:45:43.602Z,55.11
2023-03-17T20:48:12.002Z,55.89
2023-03-17T20:50:41.265Z,56.45
2023-03-17T20:53:10.418Z,56.45
2023-03-17T20:55:40.141Z,56.30
2023-03-17T20:58:08.450Z,56.36
2023-03-17T21:00:36.811Z,58.37
2023-03-17T21:03:05.550Z,59.88
2023-03-17T21:05:35.626Z,61.48
2023-03-17T21:08:05.470Z,61.99
2023-03-17T21:10:33.940Z,63.01
2023-03-17T21:13:03.622Z,63.52
2023-03-17T21:15:31.923Z,63.50
2023-03-17T21:18:00.198Z,63.94
2023-03-17T21:20:28.637Z,64.85
2023-03-17T21:22:57.299Z,66.70
2023-03-17T21:25:25.618Z,66.31
2023-03-17T21:27:53.943Z,65.39
2023-03-17T21:30:23.624Z,66.22
2023-03-17T21:32:53.568Z,67.12
2023-03-17T21:35:22.004Z,68.10
2023-03-17T21:37:50.474Z,70.13
2023-03-17T21:40:19.587Z,71.07
2023-03-17T21:42:47.933Z,71.33
2023-03-17T21:45:17.856Z,70.95
2023-03-17T21:47:47.485Z,71.79
2023-03-17T21:50:17.754Z,73.54
2023-03-17T21:52:46.101Z,73.60
2023-03-17T21:55:14.574Z,75.51
2023-03-17T21:57:43.040Z,76.30
2023-03-17T22:00:12.471Z,77.14
2023-03-17T22:02:41.878Z,78.27
2023-03-17T22:05:11.808Z,77.92
2023-03-17T22:07:41.065Z,78.35
2023-03-17T22:10:10.670Z,76.58
2023-03-17T22:12:39.796Z,77.04
2023-03-17T22:15:10.236Z,77.94
2023-03-17T22:17:39.717Z,78.49
2023-03-17T22:20:09.080Z,80.38
2023-03-17T22:22:38.895Z,81.30
2023-03-17T22:25:08.190Z,84.90
2023-03-17T22:27:36.464Z,83.96
2023-03-17T22:30:06.410Z,85.14
2023-03-17T22:32:34.759Z,85.66
2023-03-17T22:35:03.157Z,85.46
2023-03-17T22:37:31.737Z,86.73
2023-03-17T22:40:04.011Z,87.49
2023-03-17T22:42:32.323Z,87.57
2023-03-17T22:45:00.694Z,89.72
2023-03-17T22:47:29.104Z,89.62
2023-03-17T22:49:57.428Z,91.01
2023-03-17T22:52:25.729Z,92.55
2023-03-17T22:54:54.035Z,94.32
2023-03-17T22:57:23.813Z,95.88
2023-03-17T22:59:55.157Z,97.26
2023-03-17T23:02:23.538Z,95.68
2023-03-17T23:04:51.902Z,91.84
2023-03-17T23:07:20.424Z,90.70
2023-03-17T23:09:49.056Z,90.24
2023-03-17T23:12:17.836Z,90.14
2023-03-17T23:14:47.549Z,86.20
2023-03-17T23:17:15.882Z,82.82
2023-03-17T23:19:44.141Z,83.29
2023-03-17T23:22:12.798Z,84.67
2023-03-17T23:24:41.035Z,83.38
2023-03-17T23:27:09.636Z,83.08
2023-03-17T23:29:37.912Z,84.12
2023-03-17T23:32:08.296Z,84.71
2023-03-17T23:34:36.640Z,85.90
2023-03-17T23:37:05.029Z,88.41
2023-03-17T23:39:33.547Z,88.86
2023-03-17T23:42:01.873Z,90.50
2023-03-17T23:44:30.161Z,93.35
2023-03-17T23:46:58.426Z,95.45
2023-03-17T23:49:28.210Z,94.02
2023-03-17T23:51:57.078Z,94.04
2023-03-17T23:54:25.590Z,94.19
2023-03-17T23:56:54.146Z,94.46
2023-03-17T23:59:22.660Z,92.98
